Time;durP1;ratioP1;P1;durP2;ratioP2;P2;SDS_P1;SDS_P2;PMS_P1;PMS_P2;Temp;Humidity;BMP_temperature;BMP_pressure;BME280_temperature;BME280_humidity;BME280_pressure;Samples;Min_cycle;Max_cycle;Signal;HPM_P1;HPM_P2
2022/09/03 00:00:13;;;;;;;17.83;13.80;;;25.30;56.00;;;;;;4736207;59;21059;-26
2022/09/03 00:05:43;;;;;;;14.93;13.27;;;25.30;56.00;;;;;;4749612;55;21000;-28
2022/09/03 00:11:12;;;;;;;17.55;13.13;;;25.30;56.00;;;;;;4746154;55;21532;-28
2022/09/03 00:16:17;;;;;;;16.00;13.18;;;25.30;56.00;;;;;;4746196;55;21541;-25
2022/09/03 00:23:38;;;;;;;15.77;13.35;;;25.30;56.80;;;;;;4755867;55;21536;-27
2022/09/03 00:28:50;;;;;;;14.80;12.43;;;25.30;56.10;;;;;;4752126;55;20995;-27
2022/09/03 00:33:55;;;;;;;14.05;12.25;;;25.30;56.10;;;;;;4739405;55;21063;-35
2022/09/03 00:38:57;;;;;;;15.77;12.65;;;25.30;56.10;;;;;;4757625;55;21011;-28
2022/09/03 00:45:39;;;;;;;13.88;12.30;;;25.30;56.10;;;;;;4762241;55;21453;-31
2022/09/03 00:51:50;;;;;;;13.85;11.80;;;25.30;56.20;;;;;;4736486;59;21559;-32
2022/09/03 00:58:36;;;;;;;15.65;11.57;;;25.30;56.20;;;;;;4761285;55;21050;-34
2022/09/03 01:04:06;;;;;;;15.13;12.00;;;25.30;56.10;;;;;;4744701;55;21064;-30
2022/09/03 01:12:48;;;;;;;13.68;12.15;;;25.30;56.20;;;;;;4767774;55;21565;-34
2022/09/03 01:24:06;;;;;;;14.07;12.37;;;25.30;56.20;;;;;;4742604;55;21580;-27
2022/09/03 01:31:10;;;;;;;13.55;11.82;;;25.20;56.30;;;;;;4759815;55;21612;-28
2022/09/03 01:36:33;;;;;;;13.52;11.07;;;25.20;56.10;;;;;;4774384;55;21473;-29
2022/09/03 01:42:17;;;;;;;14.70;11.68;;;25.20;55.90;;;;;;4744968;55;21553;-27
2022/09/03 01:50:58;;;;;;;12.50;11.07;;;25.20;56.20;;;;;;4748302;55;21020;-28
2022/09/03 01:59:18;;;;;;;11.93;10.73;;;25.20;56.30;;;;;;4757924;55;21569;-31
2022/09/03 02:04:22;;;;;;;12.98;11.18;;;25.30;56.40;;;;;;4736066;55;21043;-34
2022/09/03 02:09:23;;;;;;;15.13;11.00;;;25.20;56.30;;;;;;4764728;55;21478;-26
2022/09/03 02:14:26;;;;;;;14.38;10.52;;;25.20;56.30;;;;;;4783716;55;21007;-26
2022/09/03 02:19:29;;;;;;;12.40;11.10;;;25.20;56.40;;;;;;4759900;55;21477;-28
2022/09/03 02:24:31;;;;;;;13.02;10.65;;;25.20;56.30;;;;;;4766640;55;20994;-26
2022/09/03 02:29:32;;;;;;;12.60;10.90;;;25.20;56.50;;;;;;4759471;55;21608;-31
2022/09/03 02:34:33;;;;;;;12.30;10.52;;;25.20;56.50;;;;;;4746268;55;21099;-30
2022/09/03 02:39:35;;;;;;;13.70;10.65;;;25.20;56.50;;;;;;4735735;59;21055;-30
2022/09/03 02:44:41;;;;;;;13.18;10.23;;;25.20;56.40;;;;;;4773468;55;21527;-31
2022/09/03 02:49:42;;;;;;;12.45;10.68;;;25.30;56.40;;;;;;4764366;55;21014;-27
2022/09/03 02:54:44;;;;;;;12.15;10.68;;;25.30;56.40;;;;;;4761736;55;21589;-30
2022/09/03 02:59:45;;;;;;;11.98;10.30;;;25.20;56.50;;;;;;4739820;55;21509;-28
2022/09/03 03:04:46;;;;;;;11.88;10.32;;;25.20;56.50;;;;;;4737928;55;21023;-26
2022/09/03 03:09:46;;;;;;;14.87;9.95;;;25.20;56.50;;;;;;4741328;55;21024;-29
2022/09/03 03:14:47;;;;;;;13.82;10.40;;;25.20;56.40;;;;;;4763430;55;21012;-28
2022/09/03 03:19:48;;;;;;;12.68;10.25;;;25.20;56.50;;;;;;4763508;55;21003;-26
2022/09/03 03:24:49;;;;;;;12.52;10.60;;;25.20;56.40;;;;;;4751022;55;21533;-27
2022/09/03 03:29:50;;;;;;;10.52;9.40;;;25.20;56.50;;;;;;4772716;55;21537;-26
2022/09/03 03:34:51;;;;;;;11.93;10.00;;;25.20;56.50;;;;;;4806198;55;21477;-28
2022/09/03 03:39:52;;;;;;;11.20;9.98;;;25.20;56.50;;;;;;4735875;59;21008;-26
2022/09/03 03:44:53;;;;;;;14.80;9.95;;;25.20;56.50;;;;;;4789960;55;20991;-30
2022/09/03 03:49:54;;;;;;;14.48;9.93;;;25.20;56.50;;;;;;4745459;55;21007;-26
2022/09/03 03:54:55;;;;;;;12.35;9.75;;;25.20;56.50;;;;;;4745425;55;21488;-36
2022/09/03 03:59:56;;;;;;;10.63;9.23;;;25.20;56.60;;;;;;4744938;55;21564;-30
2022/09/03 04:04:57;;;;;;;12.25;9.30;;;25.20;56.60;;;;;;4734933;59;21023;-29
2022/09/03 04:09:58;;;;;;;10.50;9.02;;;25.20;56.60;;;;;;4736329;59;21453;-36
2022/09/03 04:14:59;;;;;;;11.40;9.10;;;25.20;56.60;;;;;;4749761;55;21450;-31
2022/09/03 04:19:59;;;;;;;13.10;9.15;;;25.20;56.70;;;;;;4741486;55;21042;-26
2022/09/03 04:25:00;;;;;;;12.32;9.00;;;25.20;56.60;;;;;;4754409;55;21027;-28
2022/09/03 04:30:01;;;;;;;10.20;8.95;;;25.20;56.60;;;;;;4746995;55;21059;-29
2022/09/03 04:35:02;;;;;;;10.48;9.32;;;25.20;56.60;;;;;;4771991;55;21059;-26
2022/09/03 04:40:04;;;;;;;12.07;9.00;;;25.20;56.60;;;;;;4736867;59;21146;-28
2022/09/03 04:45:07;;;;;;;10.35;8.95;;;25.20;56.70;;;;;;4772119;55;21462;-28
2022/09/03 04:50:09;;;;;;;10.95;9.30;;;25.20;56.70;;;;;;4736100;59;21577;-26
2022/09/03 04:55:10;;;;;;;12.45;8.65;;;25.20;56.60;;;;;;4768473;55;21011;-27
2022/09/03 05:00:17;;;;;;;10.77;8.40;;;25.20;56.60;;;;;;4766327;55;21502;-31
2022/09/03 05:05:18;;;;;;;10.38;8.48;;;25.20;56.60;;;;;;4752807;55;21039;-27
2022/09/03 05:10:19;;;;;;;12.23;8.57;;;25.20;56.60;;;;;;4736054;55;21047;-25
2022/09/03 05:15:20;;;;;;;10.05;8.10;;;25.20;56.60;;;;;;4760104;55;21090;-30
2022/09/03 05:20:20;;;;;;;10.48;8.30;;;25.20;56.60;;;;;;4777553;55;21016;-25
2022/09/03 05:25:23;;;;;;;11.52;8.23;;;25.20;56.60;;;;;;4760551;55;21022;-25
2022/09/03 05:30:25;;;;;;;11.10;8.57;;;25.20;56.60;;;;;;4736535;59;21027;-30
2022/09/03 05:35:25;;;;;;;10.85;8.13;;;25.20;56.60;;;;;;4762742;55;21536;-25
2022/09/03 05:40:26;;;;;;;9.45;8.45;;;25.20;56.70;;;;;;4757031;55;21012;-25
2022/09/03 05:45:28;;;;;;;10.93;9.20;;;25.20;56.70;;;;;;4766489;55;21012;-26
2022/09/03 05:50:29;;;;;;;10.48;8.27;;;25.20;56.60;;;;;;4736361;59;21496;-28
2022/09/03 05:55:30;;;;;;;12.20;9.73;;;25.20;57.00;;;;;;4735869;59;21003;-26
2022/09/03 06:00:30;;;;;;;12.30;9.30;;;25.20;56.60;;;;;;4736254;59;21018;-30
2022/09/03 06:05:31;;;;;;;14.07;9.50;;;25.10;56.50;;;;;;4750649;55;21173;-28
2022/09/03 06:10:32;;;;;;;11.63;9.00;;;25.20;56.60;;;;;;4786954;55;20999;-26
2022/09/03 06:15:33;;;;;;;13.57;9.65;;;25.20;56.60;;;;;;4736831;59;21011;-25
2022/09/03 06:20:34;;;;;;;11.82;9.55;;;25.10;56.60;;;;;;4752405;55;21047;-25
2022/09/03 06:25:37;;;;;;;12.57;10.00;;;25.10;56.50;;;;;;4744522;55;20979;-27
2022/09/03 06:30:38;;;;;;;12.07;9.48;;;25.10;56.60;;;;;;4755796;55;21477;-27
2022/09/03 06:35:40;;;;;;;11.77;10.48;;;25.10;56.60;;;;;;4749425;55;20983;-27
2022/09/03 06:40:41;;;;;;;12.18;10.43;;;25.10;56.50;;;;;;4735671;59;22067;-25
2022/09/03 06:45:42;;;;;;;13.05;10.52;;;25.10;56.60;;;;;;4781943;55;22199;-28
2022/09/03 06:50:43;;;;;;;13.52;11.00;;;25.10;57.20;;;;;;4781621;55;21011;-35
2022/09/03 06:56:10;;;;;;;13.43;11.07;;;25.10;56.60;;;;;;4736107;59;21067;-27
2022/09/03 07:01:20;;;;;;;14.15;11.07;;;25.20;56.60;;;;;;4738069;55;21000;-26
2022/09/03 07:06:24;;;;;;;18.25;11.98;;;25.10;56.60;;;;;;4772206;55;20968;-25
2022/09/03 07:11:30;;;;;;;17.10;12.27;;;25.20;56.60;;;;;;4746746;55;21023;-26
2022/09/03 07:16:35;;;;;;;16.40;12.60;;;25.20;56.60;;;;;;4751947;55;21456;-29
2022/09/03 07:21:36;;;;;;;15.48;12.45;;;25.20;56.60;;;;;;4736135;59;21806;-27
2022/09/03 07:26:42;;;;;;;15.63;12.75;;;25.20;56.60;;;;;;4759856;55;20972;-28
2022/09/03 07:31:43;;;;;;;22.57;14.40;;;25.20;56.70;;;;;;4749046;55;21457;-29
2022/09/03 07:36:46;;;;;;;16.17;13.85;;;25.10;56.60;;;;;;4747095;55;21015;-26
2022/09/03 07:41:47;;;;;;;18.00;14.15;;;25.20;56.60;;;;;;4746144;55;21067;-28
2022/09/03 07:46:49;;;;;;;19.02;14.43;;;25.10;56.60;;;;;;4750329;55;21019;-28
2022/09/03 07:51:52;;;;;;;19.55;14.70;;;25.10;56.60;;;;;;4736476;59;21035;-30
2022/09/03 07:56:54;;;;;;;21.20;15.77;;;25.20;56.70;;;;;;4736887;55;21426;-28
2022/09/03 08:01:55;;;;;;;20.27;15.70;;;25.20;56.80;;;;;;4735671;59;21509;-28
2022/09/03 08:06:58;;;;;;;21.33;15.95;;;25.20;56.80;;;;;;4761796;55;22215;-32
2022/09/03 08:11:59;;;;;;;22.60;16.50;;;25.20;56.70;;;;;;4736957;56;21454;-32
2022/09/03 08:17:01;;;;;;;19.33;15.55;;;25.20;56.80;;;;;;4738002;55;21066;-31
2022/09/03 08:22:01;;;;;;;24.08;16.60;;;25.20;57.20;;;;;;4735784;59;21562;-34
2022/09/03 08:27:05;;;;;;;23.27;16.20;;;25.10;56.70;;;;;;4738127;55;21055;-30
2022/09/03 08:32:09;;;;;;;22.77;17.08;;;25.20;56.70;;;;;;4749170;55;21023;-26
2022/09/03 08:37:11;;;;;;;21.67;17.12;;;25.20;56.70;;;;;;4744570;55;20992;-29
2022/09/03 08:42:38;;;;;;;22.40;17.25;;;25.20;56.70;;;;;;4753304;55;22167;-30
2022/09/03 08:48:12;;;;;;;22.27;17.12;;;25.20;56.70;;;;;;4737794;55;20980;-27
2022/09/03 08:53:41;;;;;;;23.02;17.37;;;25.20;56.70;;;;;;4773395;55;21031;-30
2022/09/03 08:58:43;;;;;;;22.25;17.58;;;25.20;56.70;;;;;;4737117;59;20984;-28
2022/09/03 09:04:29;;;;;;;22.60;17.83;;;25.20;56.70;;;;;;4746465;55;21656;-27
2022/09/03 09:09:59;;;;;;;22.58;17.58;;;25.20;56.70;;;;;;4746046;55;21032;-31
2022/09/03 09:16:18;;;;;;;22.87;16.77;;;25.20;56.70;;;;;;4749078;55;21050;-32
2022/09/03 09:21:27;;;;;;;20.98;16.42;;;25.20;56.70;;;;;;4744040;55;21100;-28
2022/09/03 09:26:28;;;;;;;23.58;17.10;;;25.20;56.80;;;;;;4736494;59;21011;-28
2022/09/03 09:31:31;;;;;;;20.25;16.37;;;25.20;56.70;;;;;;4736465;59;21011;-26
2022/09/03 09:37:09;;;;;;;23.40;17.05;;;25.20;56.70;;;;;;4736209;55;21541;-28
2022/09/03 09:42:11;;;;;;;22.15;17.33;;;25.20;56.70;;;;;;4736414;55;21572;-29
2022/09/03 09:49:56;;;;;;;20.88;16.95;;;25.20;56.70;;;;;;4752318;55;21047;-31
2022/09/03 09:55:11;;;;;;;25.12;17.98;;;25.20;56.70;;;;;;4742750;55;21509;-26
2022/09/03 10:00:15;;;;;;;22.67;17.90;;;25.20;56.70;;;;;;4770577;55;21004;-27
2022/09/03 10:05:23;;;;;;;24.17;18.83;;;25.20;56.70;;;;;;4740669;55;21047;-29
2022/09/03 10:10:25;;;;;;;23.48;17.40;;;25.20;56.70;;;;;;4737279;59;20983;-28
2022/09/03 10:16:01;;;;;;;23.75;17.62;;;25.20;56.80;;;;;;4737849;55;21569;-29
2022/09/03 10:21:40;;;;;;;;;;;25.20;56.60;;;;;;4769136;55;20976;-29
2022/09/03 10:26:44;;;;;;;24.75;18.33;;;25.20;56.70;;;;;;4770958;55;20065;-34
2022/09/03 10:32:12;;;;;;;24.42;18.60;;;25.20;56.60;;;;;;4736878;59;21517;-26
2022/09/03 10:40:05;;;;;;;23.98;18.70;;;25.20;56.60;;;;;;4743063;55;21043;-28
2022/09/03 10:45:27;;;;;;;24.23;18.30;;;25.20;56.60;;;;;;4801113;55;21540;-27
2022/09/03 10:50:55;;;;;;;23.92;18.10;;;25.20;56.60;;;;;;4736477;56;21461;-29
2022/09/03 10:56:07;;;;;;;24.25;18.85;;;25.20;56.60;;;;;;4746048;55;20967;-28
2022/09/03 11:02:59;;;;;;;25.90;18.40;;;25.10;56.50;;;;;;4743288;55;22502;-29
2022/09/03 11:11:20;;;;;;;26.92;19.40;;;25.20;56.60;;;;;;4753698;55;21148;-29
2022/09/03 11:16:27;;;;;;;23.40;18.83;;;25.20;56.60;;;;;;4754015;55;21469;-29
2022/09/03 11:21:30;;;;;;;22.77;18.27;;;25.20;56.50;;;;;;4753212;55;22065;-24
2022/09/03 11:26:34;;;;;;;22.67;18.05;;;25.20;56.50;;;;;;4751334;55;20995;-29
2022/09/03 11:32:01;;;;;;;24.17;19.12;;;25.20;56.50;;;;;;4753523;55;21548;-28
2022/09/03 11:37:52;;;;;;;22.13;18.52;;;25.20;56.50;;;;;;4771245;55;20987;-26
2022/09/03 11:43:05;;;;;;;22.02;18.62;;;25.20;56.50;;;;;;4735826;56;21503;-28
2022/09/03 11:50:05;;;;;;;23.87;18.67;;;25.20;56.50;;;;;;4759404;55;21055;-25
2022/09/03 11:55:07;;;;;;;22.55;19.20;;;25.20;56.50;;;;;;4753781;55;21047;-27
2022/09/03 12:00:20;;;;;;;26.02;21.35;;;25.20;56.50;;;;;;4742215;55;21055;-24
2022/09/03 12:08:11;;;;;;;24.52;19.73;;;25.20;56.50;;;;;;4766021;55;21181;-27
2022/09/03 12:13:57;;;;;;;23.33;20.30;;;25.20;56.60;;;;;;4750496;55;20995;-25
2022/09/03 12:19:24;;;;;;;25.60;20.98;;;25.20;56.50;;;;;;4737711;55;21043;-31
2022/09/03 12:24:30;;;;;;;24.23;21.05;;;25.20;56.50;;;;;;4780376;55;21007;-27
2022/09/03 12:29:31;;;;;;;26.35;20.55;;;25.20;56.50;;;;;;4763067;55;21592;-27
2022/09/03 12:34:32;;;;;;;25.73;21.30;;;25.20;56.50;;;;;;4789340;55;21106;-30
2022/09/03 12:39:36;;;;;;;26.83;20.77;;;25.20;56.60;;;;;;4738849;55;21008;-29
2022/09/03 12:44:41;;;;;;;26.10;21.42;;;25.20;56.60;;;;;;4735776;59;21054;-31
2022/09/03 12:49:46;;;;;;;25.95;20.70;;;25.20;56.50;;;;;;4737868;55;21985;-27
2022/09/03 12:55:29;;;;;;;24.70;21.17;;;25.20;56.50;;;;;;4738132;55;21047;-24
2022/09/03 13:00:33;;;;;;;24.95;20.30;;;25.20;56.50;;;;;;4751447;55;21022;-26
2022/09/03 13:05:44;;;;;;;26.55;21.37;;;25.20;56.50;;;;;;4737204;55;21048;-27
2022/09/03 13:10:55;;;;;;;22.92;20.23;;;25.20;56.50;;;;;;4765084;55;21139;-27
2022/09/03 13:19:07;;;;;;;24.65;20.65;;;25.20;56.50;;;;;;4736258;59;21060;-28
2022/09/03 13:24:28;;;;;;;24.83;20.00;;;25.20;56.50;;;;;;4753782;55;20984;-26
2022/09/03 13:30:04;;;;;;;25.83;20.10;;;25.20;56.50;;;;;;4741919;55;21067;-25
2022/09/03 13:35:44;;;;;;;23.23;19.77;;;25.20;57.00;;;;;;4736403;59;22098;-26
2022/09/03 13:42:12;;;;;;;25.15;20.27;;;25.20;56.50;;;;;;4798235;55;21083;-25
2022/09/03 13:47:36;;;;;;;25.37;20.55;;;25.20;56.50;;;;;;4736422;59;21004;-26
2022/09/03 13:53:35;;;;;;;23.92;19.48;;;25.20;56.50;;;;;;4735978;59;21497;-31
2022/09/03 13:58:52;;;;;;;22.87;19.90;;;25.20;56.40;;;;;;4766303;55;21869;-37
2022/09/03 14:04:00;;;;;;;23.48;20.40;;;25.20;56.40;;;;;;4751843;55;21560;-27
2022/09/03 14:09:26;;;;;;;26.33;20.58;;;25.20;56.40;;;;;;4736152;55;21576;-28
2022/09/03 14:21:34;;;;;;;24.30;19.95;;;25.20;56.40;;;;;;4752234;55;22662;-31
2022/09/03 14:26:37;;;;;;;22.75;19.80;;;25.20;56.50;;;;;;4735991;55;21027;-27
2022/09/03 14:34:43;;;;;;;26.90;21.83;;;25.20;56.50;;;;;;4735830;59;21044;-27
2022/09/03 14:46:04;;;;;;;24.35;20.25;;;25.20;56.40;;;;;;4751466;55;21027;-29
2022/09/03 14:51:43;;;;;;;23.25;19.80;;;25.20;56.40;;;;;;4739306;55;21473;-26
2022/09/03 14:57:04;;;;;;;25.62;20.88;;;25.20;56.40;;;;;;4743923;55;21026;-27
2022/09/03 15:06:07;;;;;;;25.00;19.92;;;25.20;56.40;;;;;;4739664;55;21119;-29
2022/09/03 15:11:24;;;;;;;21.87;19.02;;;25.20;56.40;;;;;;4812311;55;20998;-27
2022/09/03 15:16:52;;;;;;;23.80;19.15;;;25.20;56.40;;;;;;4738074;55;21486;-29
2022/09/03 15:23:33;;;;;;;23.25;19.25;;;25.20;56.40;;;;;;4759042;55;20999;-27
2022/09/03 15:28:59;;;;;;;23.15;19.10;;;25.20;56.40;;;;;;4738858;55;21078;-29
2022/09/03 15:35:00;;;;;;;24.00;19.45;;;25.20;56.40;;;;;;4764822;55;20976;-25
2022/09/03 15:41:55;;;;;;;21.45;18.85;;;25.20;56.40;;;;;;4775016;55;21015;-32
2022/09/03 15:47:06;;;;;;;;;;;25.20;56.40;;;;;;4739822;55;21517;-26
2022/09/03 16:05:44;;;;;;;22.08;18.80;;;25.20;56.40;;;;;;4748671;55;20076;-25
2022/09/03 16:11:09;;;;;;;21.58;18.37;;;25.20;56.50;;;;;;4745892;55;21513;-32
2022/09/03 16:16:20;;;;;;;20.37;18.08;;;25.20;56.50;;;;;;4783143;55;21810;-30
2022/09/03 16:25:06;;;;;;;21.05;18.30;;;25.20;56.50;;;;;;4735563;59;21425;-27
2022/09/03 16:30:27;;;;;;;21.37;18.23;;;25.20;56.50;;;;;;4758863;55;21452;-27
2022/09/03 16:39:36;;;;;;;19.87;17.52;;;25.20;56.50;;;;;;4739770;55;20976;-28
2022/09/03 16:45:06;;;;;;;22.13;18.23;;;25.20;56.50;;;;;;4740317;55;21461;-31
2022/09/03 16:54:18;;;;;;;22.60;19.00;;;25.20;56.50;;;;;;4745468;55;20983;-26
2022/09/03 16:59:50;;;;;;;22.25;18.70;;;25.20;56.50;;;;;;4753107;55;21031;-29
2022/09/03 17:06:55;;;;;;;20.73;17.90;;;25.20;56.60;;;;;;4765607;55;21059;-26
2022/09/03 17:12:57;;;;;;;22.60;18.95;;;25.20;56.60;;;;;;4754470;55;21019;-32
2022/09/03 17:19:50;;;;;;;20.90;17.80;;;25.20;56.60;;;;;;4745963;55;21545;-25
2022/09/03 17:25:02;;;;;;;20.83;18.08;;;25.20;57.20;;;;;;4736091;59;21497;-27
2022/09/03 17:30:41;;;;;;;22.65;18.20;;;25.20;56.60;;;;;;4739707;55;21604;-28
2022/09/03 17:36:14;;;;;;;19.92;17.12;;;25.20;56.70;;;;;;4736819;55;20999;-27
2022/09/03 17:42:53;;;;;;;21.20;18.27;;;25.20;56.60;;;;;;4735637;59;20995;-26
2022/09/03 17:49:43;;;;;;;21.62;17.77;;;25.20;56.70;;;;;;4745320;55;20985;-25
2022/09/03 17:54:51;;;;;;;19.42;16.98;;;25.20;56.70;;;;;;4752467;55;21087;-26
2022/09/03 18:00:22;;;;;;;21.35;17.42;;;25.20;56.70;;;;;;4750252;55;20987;-27
2022/09/03 18:05:40;;;;;;;20.08;17.98;;;25.20;56.80;;;;;;4745212;55;21087;-25
2022/09/03 18:13:37;;;;;;;19.80;17.30;;;25.20;56.80;;;;;;4752670;55;21008;-28
2022/09/03 18:18:46;;;;;;;18.20;16.20;;;25.20;56.90;;;;;;4740983;55;20999;-28
2022/09/03 20:13:18;;;;;;;16.65;14.95;;;25.20;57.50;;;;;;4736469;55;21604;-30
2022/09/03 20:26:38;;;;;;;17.62;15.82;;;25.20;57.50;;;;;;4765335;55;21912;-27
2022/09/03 20:32:54;;;;;;;19.17;15.40;;;25.20;57.60;;;;;;4777087;55;21071;-33
2022/09/03 20:40:10;;;;;;;16.55;14.52;;;25.20;57.60;;;;;;4756833;55;21521;-25
2022/09/03 20:45:21;;;;;;;15.02;13.55;;;25.20;57.50;;;;;;4745622;55;20983;-31
2022/09/03 20:52:06;;;;;;;16.80;14.98;;;25.20;57.50;;;;;;4740368;55;20992;-27
2022/09/03 20:57:33;;;;;;;16.52;14.77;;;25.20;57.50;;;;;;4746518;55;21505;-32
2022/09/03 21:03:03;;;;;;;16.12;14.52;;;25.20;57.60;;;;;;4782045;55;21087;-29
2022/09/03 21:11:19;;;;;;;16.23;14.63;;;25.20;57.50;;;;;;4743823;55;21129;-26
2022/09/03 21:16:44;;;;;;;15.65;13.88;;;25.20;57.60;;;;;;4773260;55;21051;-27
2022/09/03 21:22:04;;;;;;;15.93;13.70;;;25.20;57.60;;;;;;4736082;59;21450;-25
2022/09/03 21:27:19;;;;;;;15.63;14.05;;;25.20;57.60;;;;;;4757244;55;21048;-31
2022/09/03 21:32:31;;;;;;;14.87;13.47;;;25.20;57.60;;;;;;4748090;55;21524;-25
2022/09/03 21:37:38;;;;;;;15.85;14.25;;;25.20;57.60;;;;;;4806281;55;21047;-30
2022/09/03 21:42:51;;;;;;;14.27;12.90;;;25.20;57.60;;;;;;4747524;55;20987;-30
2022/09/03 21:48:03;;;;;;;14.68;13.18;;;25.20;57.60;;;;;;4737064;55;21067;-29
2022/09/03 21:53:21;;;;;;;15.48;13.20;;;25.20;57.70;;;;;;4784169;55;20991;-32
2022/09/03 22:00:18;;;;;;;15.05;13.55;;;25.20;57.70;;;;;;4770159;55;21045;-31
2022/09/03 22:05:19;;;;;;;14.25;12.45;;;25.20;57.70;;;;;;4761138;55;21087;-34
2022/09/03 22:10:56;;;;;;;14.27;12.70;;;25.20;57.70;;;;;;4736614;59;21474;-33
2022/09/03 22:16:15;;;;;;;14.50;12.75;;;25.20;57.70;;;;;;4754561;55;21035;-26
2022/09/03 22:22:03;;;;;;;13.68;12.25;;;25.20;57.70;;;;;;4755291;55;21079;-26
2022/09/03 22:27:40;;;;;;;13.50;12.02;;;25.20;57.70;;;;;;4787818;55;21028;-27
2022/09/03 22:35:25;;;;;;;14.27;12.77;;;25.20;57.80;;;;;;4742941;55;20976;-34
2022/09/03 22:43:14;;;;;;;13.62;12.32;;;25.20;57.80;;;;;;4746559;55;20999;-32
2022/09/03 22:48:58;;;;;;;13.88;12.45;;;25.20;57.80;;;;;;4746923;55;20992;-25
2022/09/03 22:54:36;;;;;;;13.62;12.23;;;25.20;57.80;;;;;;4743739;55;21043;-26
2022/09/03 22:59:44;;;;;;;12.88;11.57;;;25.20;57.80;;;;;;4736780;56;21075;-28
2022/09/03 23:05:08;;;;;;;13.25;11.95;;;25.20;57.80;;;;;;4761315;55;21012;-28
2022/09/03 23:10:15;;;;;;;13.45;12.10;;;25.20;57.80;;;;;;4750267;55;21064;-29
2022/09/03 23:15:29;;;;;;;14.00;12.48;;;25.20;57.90;;;;;;4748454;55;21518;-36
2022/09/03 23:20:33;;;;;;;13.98;12.25;;;25.20;57.80;;;;;;4741560;55;21580;-29
2022/09/03 23:25:53;;;;;;;13.27;11.88;;;25.20;57.90;;;;;;4773066;55;21051;-31
2022/09/03 23:31:02;;;;;;;13.15;11.85;;;25.20;57.80;;;;;;4760191;55;21083;-36
2022/09/03 23:38:00;;;;;;;12.82;11.52;;;25.20;57.90;;;;;;4764058;55;20985;-29
2022/09/03 23:45:11;;;;;;;12.30;11.10;;;25.20;57.90;;;;;;4758083;55;20987;-25
2022/09/03 23:50:43;;;;;;;13.20;11.48;;;25.20;57.90;;;;;;4738993;55;21623;-25
2022/09/03 23:56:08;;;;;;;13.23;11.93;;;25.20;57.90;;;;;;4736622;59;21493;-25
